• Join FlightAware (Why Join?)
  • Login
  • US Flag 
03:29PM EDT


 

Airport Tracker/Info


-or-


 

Live Flight TrackerFlight Track Log ✈ AMF1324 ✈ 08-Nov-2013 ✈ KBUF - KBGM

Flight Track Log - Related Links

Times and Time Zones

All times are in EST time to prevent confusion due to time zone crossing. See the AMF1324 flight status page for this flight to view local times or setup timezone preferences in your user account.

Time Position Orientation Groundspeed Altitude Reporting Facility
EST Latitude Longitude Course Direction KTS MPH feet Rate Location/Type
06:48AM 42.9333 -78.7333 194° South 152 175 1,400  Level Buffalo TRACON
06:49AM 42.8833 -78.7500 194° South 212 244 3,400 1,980 Climbing Buffalo TRACON
06:50AM 42.8692 -78.6119 98° East 226 260 6,700 1,920 Climbing Cleveland Center
06:51AM 42.8583 -78.5192 99° East 238 274 8,600 1,620 Climbing Cleveland Center
06:52AM 42.8503 -78.4356 97° East 245 282 10,100 1,380 Climbing Cleveland Center
06:53AM 42.8422 -78.3406 97° East 252 290 11,500 1,260 Climbing Cleveland Center
06:54AM 42.8331 -78.2425 97° East 261 300 12,800 720 Climbing Cleveland Center
06:55AM 42.8242 -78.1386 97° East 277 319 13,000 60 Climbing Cleveland Center
06:56AM 42.7981 -78.0086 105° East 297 342 13,000  Level Cleveland Center
06:58AM 42.7697 -77.9014 110° East 301 346 13,000  Level Cleveland Center
06:59AM 42.7364 -77.7961 113° Southeast 302 348 13,000  Level Cleveland Center
07:00AM 42.7014 -77.6894 114° Southeast 304 350 13,000  Level Cleveland Center
07:01AM 42.6658 -77.5783 113° Southeast 303 349 13,000  Level Cleveland Center
07:02AM 42.6339 -77.4722 112° Southeast 304 350 13,000  Level Cleveland Center
07:03AM 42.5997 -77.3689 114° Southeast 301 346 13,000  Level Cleveland Center
07:04AM 42.5678 -77.2633 112° Southeast 301 346 13,000  Level Cleveland Center
07:05AM 42.5353 -77.1592 113° Southeast 301 346 13,000  Level Cleveland Center
07:06AM 42.5039 -77.0536 112° Southeast 302 348 13,000  Level Cleveland Center
07:07AM 42.4725 -76.9486 112° Southeast 301 346 13,000 -120 Level Cleveland Center
07:08AM 42.4297 -76.8258 115° Southeast 301 346 12,800 -420 Descending Cleveland Center
07:08AM 42.4033 -76.7572 117° Southeast 310 357 12,300 -1,140 Descending New York Center
07:09AM 42.3564 -76.6547 122° Southeast 320 368 10,900 -1,500 Descending New York Center
07:10AM 42.3072 -76.5522 123° Southeast 325 374 9,400 -900 Descending New York Center
07:11AM 42.2681 -76.4619 120° Southeast 325 374 9,100 -720 Descending New York Center
07:12AM 42.2481 -76.3539 104° East 306 352 8,000 -1,500 Descending New York Center
07:13AM 42.2322 -76.2461 101° East 294 338 6,100 -1,980 Descending New York Center
07:14AM 42.2142 -76.1408 103° East 289 333 4,100 -1,560 Descending New York Center
07:15AM 42.1911 -76.0494 109° East 277 319 3,000 -720 Descending New York Center
07:16AM 42.1669 -75.9861 117° Southeast 231 266 2,700 -360 Descending New York Center
07:17AM 42.1456 -75.9031 109° East 207 238 2,300 -420 Descending New York Center